TimeEDT,TemperatureF,Dew PointF,Humidity,Sea Level PressureIn,VisibilityMPH,Wind Direction,Wind SpeedMPH,Gust SpeedMPH,PrecipitationIn,Events,Conditions,WindDirDegrees,DateUTC
12:53 AM,43.0,27.0,53,30.34,10.0,SSE,10.4,-,N/A,,Clear,150,2013-04-23 04:53:00
1:53 AM,39.9,27.0,60,30.32,10.0,SE,6.9,-,N/A,,Clear,140,2013-04-23 05:53:00
2:53 AM,39.0,26.1,60,30.32,10.0,SSE,10.4,-,N/A,,Clear,150,2013-04-23 06:53:00
3:53 AM,36.0,26.1,67,30.32,10.0,SE,4.6,-,N/A,,Clear,140,2013-04-23 07:53:00
4:53 AM,33.1,25.0,72,30.30,10.0,SE,6.9,-,N/A,,Clear,130,2013-04-23 08:53:00
6:53 AM,34.0,25.0,70,30.28,10.0,SE,5.8,-,N/A,,Clear,140,2013-04-23 10:53:00
7:53 AM,37.0,27.0,67,30.28,10.0,SSE,9.2,-,N/A,,Clear,150,2013-04-23 11:53:00
8:53 AM,41.0,28.0,60,30.26,10.0,Variable,6.9,-,N/A,,Clear,0,2013-04-23 12:53:00
9:53 AM,46.0,28.9,51,30.23,10.0,Variable,5.8,16.1,N/A,,Clear,0,2013-04-23 13:53:00
10:53 AM,50.0,28.0,43,30.21,10.0,SSE,8.1,-,N/A,,Clear,150,2013-04-23 14:53:00
11:53 AM,54.0,28.9,38,30.19,10.0,Variable,6.9,-,N/A,,Clear,0,2013-04-23 15:53:00
12:53 PM,59.0,28.9,32,30.18,10.0,SW,10.4,-,N/A,,Clear,220,2013-04-23 16:53:00
1:53 PM,61.0,28.9,30,30.14,10.0,Variable,4.6,-,N/A,,Clear,0,2013-04-23 17:53:00
2:53 PM,64.0,28.9,27,30.11,10.0,Variable,4.6,-,N/A,,Clear,0,2013-04-23 18:53:00
3:53 PM,64.9,28.0,25,30.06,10.0,Variable,3.5,-,N/A,,Clear,0,2013-04-23 19:53:00
4:53 PM,64.9,26.1,23,30.07,10.0,South,8.1,16.1,N/A,,Clear,190,2013-04-23 20:53:00
5:53 PM,66.0,26.1,22,30.06,10.0,South,6.9,-,N/A,,Clear,180,2013-04-23 21:53:00
6:53 PM,64.0,26.1,24,30.05,10.0,South,9.2,-,N/A,,Clear,170,2013-04-23 22:53:00
7:53 PM,62.1,26.1,25,30.05,10.0,SSW,5.8,-,N/A,,Clear,200,2013-04-23 23:53:00
8:53 PM,57.9,28.9,33,30.05,10.0,SSE,4.6,-,N/A,,Clear,160,2013-04-24 00:53:00
9:53 PM,54.0,33.1,45,30.04,10.0,SSE,6.9,-,N/A,,Clear,150,2013-04-24 01:53:00
10:53 PM,53.1,33.1,47,30.02,10.0,SSE,10.4,-,N/A,,Clear,150,2013-04-24 02:53:00
11:53 PM,51.1,33.1,50,30.01,10.0,SSE,8.1,-,N/A,,Scattered Clouds,150,2013-04-24 03:53:00